Portada
METAR-TAF:

METAR-TAF

Aeroports :

Àqaba, Jordània

latitud: 29-38N, longitud: 035-01E, altitud: 53 m

Observació

L'informe es va fer fa 51 minuts, a les 02:00 UTC
Vent 6 kt del Nord
Temperatura 15°C
Humitat 72%
Pressió 1015 hPa
Visibilitat: 5000 m
calitja

METAR: OJAQ 030200Z 36006KT 5000 HZ NSC 15/10 Q1015 NOSIG

Hora: 04:51 (02:51 UTC)

Pronòstic

L'informe es va fer fa 4 hores i 1 minuts, a les 22:50 UTC
Pronòstic vàlid del 03 a les 00 UTC al 04 a les 06 UTC
Vent 10 kt del Nord
Visibilitat: 7000 m

TAF: OJAQ 022250Z 0300/0406 36010KT 7000 NSC

Observacions i pronòstics meteorològics de més de 4000 aeroports (METAR i TAF).

Les estacions disponibles són els punts grocs i vermells al mapa.

Posi el ratolí al punt desitjat per veure el nom de l'estació.

Feu clic per veure les observacions i els pronòstics meteorològics.

Per canviar el mapa: feu clic els botons verds amb una creu de color negre per apropar; al botó verd amb un guió per allunyar la imatge; o en les fletxes verdes per a mapes adjacents.


METAR-TAF: